Havasupai Indian Reservation, Arizona
Current Conditions -  °F | °C
As of 4:54 PM on Thursday 27 Nov 2014 (Local Time) from KGCN Reporting Station
Clear Clear  
Wind Chill: 55°   Ceiling: Unl
Heat Index: 55°   Visibility: 10mi
Dew Point: 11°   Wind: 3mph
Humidity: 17%   Direction: 20°NNE
Pressure: 30.35"   Gusts: NA
Location:  36.16°N, 112.613°W
Report Text: KGCN 272354Z 02003KT 10SM CLR 13/M12 A3035 RMK AO2 SLP270 T01281117 10194 20128 56008
Loading
Personal Weather Stations






























Interactive Weather Map New forecast layout! Learn more

10-Day Weather Forecast

Advertisements
Track Severe Weather on mobile